createdAt,value
2022-09-11T00:01:01.173Z,99.90
2022-09-11T00:03:28.296Z,99.90
2022-09-11T00:05:55.087Z,99.90
2022-09-11T00:08:22.197Z,99.90
2022-09-11T00:10:49.319Z,99.90
2022-09-11T00:13:21.789Z,99.90
2022-09-11T00:15:50.758Z,99.90
2022-09-11T00:18:21.819Z,99.90
2022-09-11T00:20:56.822Z,99.90
2022-09-11T00:23:26.423Z,99.90
2022-09-11T00:25:53.528Z,99.90
2022-09-11T00:28:22.986Z,99.90
2022-09-11T00:31:07.624Z,99.90
2022-09-11T00:33:36.118Z,99.90
2022-09-11T00:36:07.812Z,99.90
2022-09-11T00:38:37.222Z,99.90
2022-09-11T00:41:07.899Z,99.90
2022-09-11T00:43:52.965Z,99.90
2022-09-11T00:46:20.925Z,99.90
2022-09-11T00:48:50.101Z,99.90
2022-09-11T00:51:28.168Z,99.90
2022-09-11T00:53:57.779Z,99.90
2022-09-11T00:56:29.209Z,99.90
2022-09-11T00:58:57.270Z,99.90
2022-09-11T01:01:24.069Z,99.90
2022-09-11T01:03:51.480Z,99.90
2022-09-11T01:06:21.039Z,99.90
2022-09-11T01:08:47.862Z,99.90
2022-09-11T01:11:31.520Z,99.90
2022-09-11T01:14:34.139Z,99.90
2022-09-11T01:17:29.564Z,99.90
2022-09-11T01:20:20.781Z,99.90
2022-09-11T01:23:07.331Z,99.90
2022-09-11T01:25:52.150Z,99.90
2022-09-11T01:28:35.596Z,99.90
2022-09-11T01:31:10.293Z,99.90
2022-09-11T01:33:43.974Z,99.90
2022-09-11T01:36:21.297Z,99.90
2022-09-11T01:39:00.650Z,99.90
2022-09-11T01:41:45.213Z,99.90
2022-09-11T01:44:34.157Z,99.90
2022-09-11T01:47:03.603Z,99.90
2022-09-11T01:49:55.759Z,99.90
2022-09-11T01:52:30.882Z,99.90
2022-09-11T01:55:26.064Z,99.90
2022-09-11T01:57:58.452Z,99.90
2022-09-11T02:00:25.327Z,99.90
2022-09-11T02:03:01.173Z,99.90
2022-09-11T02:05:38.017Z,99.90
2022-09-11T02:08:12.138Z,99.90
2022-09-11T02:10:42.617Z,99.90
2022-09-11T02:13:32.287Z,99.90
2022-09-11T02:16:31.552Z,99.90
2022-09-11T02:19:04.058Z,99.90
2022-09-11T02:21:31.203Z,99.90
2022-09-11T02:23:59.071Z,99.90
2022-09-11T02:26:29.057Z,99.90
2022-09-11T02:28:56.027Z,99.90
2022-09-11T02:31:23.255Z,99.90
2022-09-11T02:33:51.284Z,99.90
2022-09-11T02:36:29.790Z,99.90
2022-09-11T02:39:08.810Z,99.90
2022-09-11T02:41:57.438Z,99.90
2022-09-11T02:44:27.010Z,99.90
2022-09-11T02:47:18.540Z,99.90
2022-09-11T02:50:04.962Z,99.90
2022-09-11T02:52:59.226Z,99.90
2022-09-11T02:56:04.572Z,99.90
2022-09-11T02:58:46.374Z,99.90
2022-09-11T03:01:13.312Z,99.90
2022-09-11T03:03:43.010Z,99.90
2022-09-11T03:06:18.176Z,99.90
2022-09-11T03:08:45.688Z,99.90
2022-09-11T03:11:15.342Z,99.90
2022-09-11T03:13:42.436Z,99.90
2022-09-11T03:16:09.426Z,99.90
2022-09-11T03:18:36.397Z,99.90
2022-09-11T03:21:03.794Z,99.90
2022-09-11T03:23:31.143Z,99.90
2022-09-11T03:25:58.780Z,99.90
2022-09-11T03:28:25.665Z,99.90
2022-09-11T03:30:55.629Z,99.90
2022-09-11T03:33:22.474Z,99.90
2022-09-11T03:35:49.217Z,99.90
2022-09-11T03:38:16.066Z,99.90
2022-09-11T03:40:44.556Z,99.90
2022-09-11T03:43:16.624Z,99.90
2022-09-11T03:45:44.918Z,99.90
2022-09-11T03:48:11.941Z,99.90
2022-09-11T03:50:38.739Z,99.90
2022-09-11T03:53:05.776Z,99.90
2022-09-11T03:55:32.747Z,99.90
2022-09-11T03:58:00.117Z,99.90
2022-09-11T04:00:27.074Z,99.90
2022-09-11T04:02:55.484Z,99.90
2022-09-11T04:05:25.676Z,99.90
2022-09-11T04:07:53.163Z,99.90
2022-09-11T04:10:20.246Z,99.90
2022-09-11T04:12:50.114Z,99.90
2022-09-11T04:15:16.964Z,99.90
2022-09-11T04:17:43.920Z,99.90
2022-09-11T04:20:11.164Z,99.90
2022-09-11T04:22:41.013Z,99.90
2022-09-11T04:25:08.361Z,99.90
2022-09-11T04:27:35.137Z,99.90
2022-09-11T04:30:01.884Z,99.90
2022-09-11T04:32:29.277Z,99.90
2022-09-11T04:34:56.378Z,99.90
2022-09-11T04:37:23.123Z,99.90
2022-09-11T04:39:50.040Z,99.90
2022-09-11T04:42:16.883Z,99.90
2022-09-11T04:44:43.649Z,99.90
2022-09-11T04:47:10.442Z,99.90
2022-09-11T04:49:37.166Z,99.90
2022-09-11T04:52:06.135Z,99.90
2022-09-11T04:54:37.144Z,99.90
2022-09-11T04:57:04.326Z,99.90
2022-09-11T04:59:31.286Z,99.90
2022-09-11T05:01:58.233Z,99.90
2022-09-11T05:04:26.407Z,99.90
2022-09-11T05:06:53.717Z,99.90
2022-09-11T05:09:20.661Z,99.90
2022-09-11T05:11:47.732Z,99.90
2022-09-11T05:14:15.337Z,99.90
2022-09-11T05:16:43.748Z,99.90
2022-09-11T05:19:10.680Z,99.90
2022-09-11T05:21:37.648Z,99.90
2022-09-11T05:24:04.759Z,99.90
2022-09-11T05:26:36.111Z,99.90
2022-09-11T05:29:09.282Z,99.90
2022-09-11T05:31:37.292Z,99.90
2022-09-11T05:34:05.172Z,99.90
2022-09-11T05:36:33.146Z,99.90
2022-09-11T05:39:00.207Z,99.90
2022-09-11T05:41:27.346Z,99.90
2022-09-11T05:43:54.784Z,99.90
2022-09-11T05:46:21.934Z,99.90
2022-09-11T05:48:48.920Z,99.90
2022-09-11T05:51:19.029Z,99.90
2022-09-11T05:53:50.419Z,99.90
2022-09-11T05:56:20.080Z,99.70
2022-09-11T05:58:48.256Z,99.80
2022-09-11T06:01:17.493Z,98.90
2022-09-11T06:03:44.946Z,98.70
2022-09-11T06:06:12.939Z,98.40
2022-09-11T06:08:44.552Z,96.90
2022-09-11T06:11:13.295Z,96.40
2022-09-11T06:13:42.342Z,96.50
2022-09-11T06:16:14.557Z,96.70
2022-09-11T06:18:44.878Z,96.20
2022-09-11T06:21:13.159Z,96.40
2022-09-11T06:23:40.437Z,96.60
2022-09-11T06:26:10.075Z,96.60
2022-09-11T06:28:37.984Z,95.70
2022-09-11T06:31:06.533Z,96.30
2022-09-11T06:33:36.157Z,96.60
2022-09-11T06:36:05.493Z,96.80
2022-09-11T06:38:32.934Z,96.90
2022-09-11T06:41:04.827Z,96.70
2022-09-11T06:43:32.682Z,96.70
2022-09-11T06:46:17.126Z,96.90
2022-09-11T06:48:46.092Z,96.60
2022-09-11T06:51:15.452Z,96.50
2022-09-11T06:53:43.093Z,96.60
2022-09-11T06:56:14.957Z,96.60
2022-09-11T06:58:41.764Z,96.10
2022-09-11T07:01:14.409Z,96.00
2022-09-11T07:03:52.962Z,95.70
2022-09-11T07:06:25.042Z,95.70
2022-09-11T07:08:53.746Z,95.20
2022-09-11T07:11:20.913Z,95.30
2022-09-11T07:13:47.920Z,95.30
2022-09-11T07:16:15.130Z,94.70
2022-09-11T07:18:44.536Z,94.60
2022-09-11T07:21:18.761Z,93.90
2022-09-11T07:23:49.675Z,93.50
2022-09-11T07:26:17.445Z,93.30
2022-09-11T07:28:44.498Z,93.10
2022-09-11T07:31:20.635Z,92.80
2022-09-11T07:33:49.929Z,92.30
2022-09-11T07:36:22.310Z,91.70
2022-09-11T07:38:49.766Z,91.30
2022-09-11T07:41:18.600Z,91.00
2022-09-11T07:43:48.372Z,90.80
2022-09-11T07:46:15.488Z,90.70
2022-09-11T07:48:43.148Z,90.70
2022-09-11T07:51:16.101Z,90.60
2022-09-11T07:53:48.343Z,90.30
2022-09-11T07:56:18.667Z,90.60
2022-09-11T07:58:46.354Z,90.20
2022-09-11T08:01:16.294Z,90.20
2022-09-11T08:03:44.057Z,90.50
2022-09-11T08:06:22.155Z,90.60
2022-09-11T10:42:23.173Z,85.80
2022-09-11T10:44:52.275Z,86.00
2022-09-11T10:47:25.464Z,86.40
2022-09-11T10:50:20.442Z,86.70
2022-09-11T10:53:20.692Z,86.50
2022-09-11T10:55:58.121Z,85.40
2022-09-11T10:58:31.146Z,85.30
2022-09-11T11:00:58.462Z,85.80
2022-09-11T11:03:27.678Z,86.00
2022-09-11T11:06:06.581Z,86.40
2022-09-11T11:08:36.650Z,86.70
2022-09-11T11:11:18.702Z,87.60
2022-09-11T11:13:53.490Z,87.50
2022-09-11T11:16:29.139Z,87.50
2022-09-11T11:19:04.828Z,87.90
2022-09-11T11:22:03.377Z,88.00
2022-09-11T11:24:49.005Z,87.90
2022-09-11T11:27:24.790Z,87.50
2022-09-11T11:30:08.907Z,87.90
2022-09-11T11:32:44.898Z,87.60
2022-09-11T11:35:25.952Z,87.20
2022-09-11T11:38:02.918Z,87.00
2022-09-11T11:40:40.497Z,86.80
2022-09-11T11:43:13.416Z,86.10
2022-09-11T11:46:02.430Z,85.90
2022-09-11T11:48:52.546Z,85.40
2022-09-11T11:51:23.771Z,85.40
2022-09-11T11:53:50.468Z,85.50
2022-09-11T11:56:19.991Z,84.40
2022-09-11T11:59:17.501Z,85.20
2022-09-11T12:01:48.017Z,84.60
2022-09-11T12:04:49.743Z,84.50
2022-09-11T12:07:26.185Z,84.40
2022-09-11T12:09:55.719Z,84.40
2022-09-11T12:12:24.961Z,84.80
2022-09-11T12:15:02.517Z,84.30
2022-09-11T12:17:32.622Z,83.40
2022-09-11T12:20:33.345Z,83.30
2022-09-11T12:23:00.860Z,83.40
2022-09-11T12:25:31.137Z,83.50
2022-09-11T12:28:34.742Z,82.40
2022-09-11T12:31:06.790Z,81.70
2022-09-11T12:33:47.187Z,82.00
2022-09-11T12:36:24.290Z,82.90
2022-09-11T12:38:59.482Z,83.20
2022-09-11T12:41:31.448Z,83.30
2022-09-11T12:43:58.359Z,83.60
2022-09-11T12:46:28.119Z,83.80
2022-09-11T12:49:21.537Z,83.90
2022-09-11T12:51:56.361Z,84.00
2022-09-11T12:54:23.175Z,83.70
2022-09-11T12:57:13.008Z,83.30
2022-09-11T12:59:43.240Z,83.70
2022-09-11T13:02:51.093Z,84.30
2022-09-11T13:05:36.492Z,84.10
2022-09-11T13:08:09.082Z,84.20
2022-09-11T13:10:38.765Z,83.20
2022-09-11T13:13:28.364Z,83.30
2022-09-11T13:15:58.073Z,83.00
2022-09-11T13:18:26.373Z,82.80
2022-09-11T13:21:09.037Z,82.60
2022-09-11T13:23:35.822Z,82.50
2022-09-11T13:26:05.389Z,82.90
2022-09-11T13:28:42.970Z,83.70
2022-09-11T13:31:21.432Z,81.90
2022-09-11T13:33:51.235Z,81.60
2022-09-11T13:36:23.069Z,81.50
2022-09-11T13:38:54.492Z,80.10
2022-09-11T13:41:29.959Z,80.50
2022-09-11T13:44:01.508Z,81.50
2022-09-11T13:46:31.607Z,82.70
2022-09-11T13:49:11.146Z,80.80
2022-09-11T13:51:45.817Z,80.10
2022-09-11T13:54:23.951Z,80.90
2022-09-11T13:56:56.907Z,81.60
2022-09-11T13:59:36.965Z,81.10
2022-09-11T14:02:08.645Z,81.10
2022-09-11T14:04:40.668Z,80.20
2022-09-11T14:07:20.891Z,80.00
2022-09-11T14:09:59.667Z,79.90
2022-09-11T14:12:28.934Z,80.00
2022-09-11T14:14:58.427Z,79.20
2022-09-11T14:17:25.820Z,79.90
2022-09-11T14:19:58.967Z,79.50
2022-09-11T14:22:33.534Z,79.30
2022-09-11T14:25:24.060Z,79.60
2022-09-11T14:27:51.329Z,78.70
2022-09-11T14:30:25.258Z,77.80
2022-09-11T14:33:13.047Z,77.00
2022-09-11T14:35:40.054Z,76.10
2022-09-11T14:38:09.240Z,76.70
2022-09-11T14:40:36.662Z,75.20
2022-09-11T14:43:05.312Z,75.10
2022-09-11T14:45:32.144Z,76.70
2022-09-11T14:48:00.170Z,77.00
2022-09-11T14:50:27.711Z,76.80
2022-09-11T14:52:54.534Z,79.10
2022-09-11T14:55:21.410Z,79.10
2022-09-11T14:57:48.355Z,77.70
2022-09-11T15:00:18.217Z,77.10
2022-09-11T15:02:46.451Z,75.90
2022-09-11T15:05:19.341Z,75.80
2022-09-11T15:07:46.121Z,75.80
2022-09-11T15:10:13.892Z,74.90
2022-09-11T15:12:40.759Z,75.90
2022-09-11T15:15:08.202Z,74.60
2022-09-11T15:17:36.513Z,72.60
2022-09-11T15:20:09.476Z,72.10
2022-09-11T15:22:38.280Z,71.00
2022-09-11T15:25:05.905Z,72.10
2022-09-11T15:27:32.733Z,71.70
2022-09-11T15:30:00.565Z,71.80
2022-09-11T15:32:27.521Z,71.30
2022-09-11T15:34:54.848Z,69.20
2022-09-11T15:37:21.662Z,69.10
2022-09-11T15:39:50.476Z,68.20
2022-09-11T15:42:17.948Z,68.20
2022-09-11T15:44:46.202Z,67.40
2022-09-11T15:47:13.765Z,67.10
2022-09-11T15:49:42.489Z,65.90
2022-09-11T15:52:09.261Z,65.50
2022-09-11T15:54:36.238Z,65.70
2022-09-11T15:57:03.246Z,65.70
2022-09-11T15:59:30.017Z,65.40
2022-09-11T16:01:57.000Z,65.30
2022-09-11T16:04:28.175Z,64.80
2022-09-11T16:06:55.250Z,65.20
2022-09-11T16:09:25.214Z,65.10
2022-09-11T16:11:54.496Z,64.50
2022-09-11T16:14:24.632Z,64.40
2022-09-11T16:16:52.507Z,64.60
2022-09-11T16:19:21.499Z,64.70
2022-09-11T16:21:49.259Z,64.90
2022-09-11T16:24:16.765Z,65.00
2022-09-11T16:26:44.533Z,65.20
2022-09-11T16:29:14.557Z,65.40
2022-09-11T16:31:42.647Z,65.80
2022-09-11T16:34:10.498Z,65.80
2022-09-11T16:36:41.881Z,65.50
2022-09-11T16:39:14.428Z,66.00
2022-09-11T16:41:41.738Z,66.10
2022-09-11T16:44:11.914Z,66.60
2022-09-11T16:46:39.314Z,67.00
2022-09-11T16:49:06.331Z,67.10
2022-09-11T16:51:34.206Z,67.80
2022-09-11T16:54:03.550Z,68.50
2022-09-11T16:56:30.512Z,69.60
2022-09-11T16:58:57.244Z,70.90
2022-09-11T17:01:26.383Z,72.70
2022-09-11T17:03:57.783Z,74.30
2022-09-11T17:06:30.256Z,75.90
2022-09-11T17:08:59.755Z,78.30
2022-09-11T17:11:28.222Z,78.50
2022-09-11T17:13:55.136Z,78.70
2022-09-11T17:16:26.056Z,79.40
2022-09-11T17:18:56.690Z,80.20
2022-09-11T17:21:24.892Z,80.70
2022-09-11T17:23:53.636Z,81.50
2022-09-11T17:26:21.543Z,81.80
2022-09-11T17:28:50.064Z,82.90
2022-09-11T17:31:19.438Z,83.80
2022-09-11T17:33:47.670Z,84.30
2022-09-11T17:36:17.266Z,85.20
2022-09-11T17:38:45.882Z,85.00
2022-09-11T17:41:13.129Z,84.80
2022-09-11T17:43:40.689Z,85.30
2022-09-11T17:46:11.452Z,85.70
2022-09-11T17:48:39.857Z,86.30
2022-09-11T17:51:12.957Z,86.80
2022-09-11T17:53:42.753Z,86.70
2022-09-11T17:56:13.190Z,86.90
2022-09-11T17:58:41.228Z,87.10
2022-09-11T18:01:08.241Z,87.60
2022-09-11T18:03:35.785Z,87.90
2022-09-11T18:06:05.620Z,88.10
2022-09-11T18:08:33.303Z,88.50
2022-09-11T18:11:01.295Z,88.60
2022-09-11T18:13:34.607Z,89.10
2022-09-11T18:16:02.966Z,89.10
2022-09-11T18:18:30.709Z,89.30
2022-09-11T18:21:05.481Z,89.60
2022-09-11T18:23:32.421Z,89.90
2022-09-11T18:26:01.092Z,90.00
2022-09-11T18:28:29.782Z,90.10
2022-09-11T18:31:04.896Z,90.30
2022-09-11T18:33:32.783Z,90.40
2022-09-11T18:36:12.020Z,90.50
2022-09-11T18:38:38.798Z,90.60
2022-09-11T18:41:05.743Z,90.70
2022-09-11T18:43:32.704Z,90.80
2022-09-11T18:46:02.938Z,90.80
2022-09-11T18:48:29.930Z,90.90
2022-09-11T18:51:00.040Z,91.00
2022-09-11T18:53:27.074Z,91.10
2022-09-11T18:56:05.315Z,91.20
2022-09-11T18:58:33.891Z,91.20
2022-09-11T19:01:09.003Z,91.40
2022-09-11T19:03:40.143Z,91.40
2022-09-11T19:06:09.407Z,91.50
2022-09-11T19:08:37.649Z,91.60
2022-09-11T19:11:14.366Z,91.70
2022-09-11T19:13:42.574Z,91.80
2022-09-11T19:16:09.999Z,91.90
2022-09-11T19:18:38.940Z,91.90
2022-09-11T19:21:14.777Z,92.00
2022-09-11T19:23:43.867Z,92.10
2022-09-11T19:26:14.802Z,92.30
2022-09-11T19:28:43.162Z,92.40
2022-09-11T19:31:12.172Z,92.60
2022-09-11T19:33:40.255Z,92.80
2022-09-11T19:36:11.864Z,92.90
2022-09-11T19:38:43.140Z,93.00
2022-09-11T19:41:12.909Z,93.30
2022-09-11T19:43:41.158Z,93.40
2022-09-11T19:46:11.217Z,93.60
2022-09-11T19:48:38.081Z,93.60
2022-09-11T19:51:17.109Z,93.90
2022-09-11T19:53:44.318Z,94.00
2022-09-11T19:56:12.254Z,94.10
2022-09-11T19:58:39.777Z,94.30
2022-09-11T20:01:15.117Z,94.30
2022-09-11T20:03:44.600Z,94.50
2022-09-11T20:06:13.118Z,94.60
2022-09-11T20:08:43.440Z,94.60
2022-09-11T20:11:12.972Z,94.70
2022-09-11T20:13:39.828Z,94.90
2022-09-11T20:16:08.956Z,95.10
2022-09-11T20:18:36.267Z,95.30
2022-09-11T20:21:06.970Z,95.40
2022-09-11T20:23:34.531Z,95.80
2022-09-11T20:26:22.349Z,96.00
2022-09-11T20:29:13.672Z,96.30
2022-09-11T20:31:47.448Z,96.50
2022-09-11T20:34:16.947Z,96.80
2022-09-11T20:36:43.773Z,97.30
2022-09-11T20:39:13.630Z,97.60
2022-09-11T20:41:40.645Z,97.80
2022-09-11T20:44:07.541Z,98.00
2022-09-11T20:46:34.357Z,98.20
2022-09-11T20:49:01.185Z,98.20
2022-09-11T20:51:27.977Z,98.40
2022-09-11T20:53:56.117Z,98.60
2022-09-11T20:56:24.150Z,99.00
2022-09-11T20:58:51.926Z,99.30
2022-09-11T21:01:24.433Z,99.60
2022-09-11T21:03:53.426Z,99.70
2022-09-11T21:06:25.514Z,99.70
2022-09-11T21:08:55.589Z,99.70
2022-09-11T21:11:26.778Z,99.90
2022-09-11T21:13:53.600Z,99.90
2022-09-11T21:16:21.042Z,99.90
2022-09-11T21:18:56.273Z,99.90
2022-09-11T21:21:24.149Z,99.90
2022-09-11T21:23:54.397Z,99.90
2022-09-11T21:26:21.169Z,99.90
2022-09-11T21:28:48.082Z,99.90
2022-09-11T21:31:14.885Z,99.90
2022-09-11T21:33:41.778Z,99.90
2022-09-11T21:36:09.013Z,99.90
2022-09-11T21:38:37.414Z,99.90
2022-09-11T21:41:07.260Z,99.90
2022-09-11T21:43:34.370Z,99.90
2022-09-11T21:46:01.816Z,99.90
2022-09-11T21:48:32.369Z,99.90
2022-09-11T21:51:10.164Z,99.90
2022-09-11T21:53:38.204Z,99.90
2022-09-11T21:56:06.442Z,99.90
2022-09-11T21:58:33.485Z,99.90
2022-09-11T22:01:08.209Z,99.90
2022-09-11T22:03:35.138Z,99.90
2022-09-11T22:06:09.101Z,99.90
2022-09-11T22:08:37.946Z,99.90
2022-09-11T22:11:05.290Z,99.90
2022-09-11T22:13:32.913Z,99.90
2022-09-11T22:16:00.400Z,99.90
2022-09-11T22:18:27.224Z,99.90
2022-09-11T22:20:58.248Z,99.90
2022-09-11T22:23:25.087Z,99.90
2022-09-11T22:25:58.832Z,99.90
2022-09-11T22:28:25.786Z,99.90
2022-09-11T22:30:52.640Z,99.90
2022-09-11T22:33:19.504Z,99.90
2022-09-11T22:35:49.397Z,99.90
2022-09-11T22:38:16.633Z,99.90
2022-09-11T22:40:43.592Z,99.90
2022-09-11T22:43:10.361Z,99.90
2022-09-11T22:45:37.434Z,99.90
2022-09-11T22:48:04.958Z,99.90
2022-09-11T22:50:33.512Z,99.90
2022-09-11T22:53:00.312Z,99.90
2022-09-11T22:55:27.333Z,99.90
2022-09-11T22:57:54.208Z,99.90
2022-09-11T23:00:21.042Z,99.90
2022-09-11T23:02:47.833Z,99.90
2022-09-11T23:05:33.129Z,99.90
2022-09-11T23:07:59.901Z,99.90
2022-09-11T23:10:26.795Z,99.90
2022-09-11T23:12:53.745Z,99.90
2022-09-11T23:15:21.254Z,99.90
2022-09-11T23:17:48.098Z,99.90
2022-09-11T23:20:14.932Z,99.90
2022-09-11T23:22:41.759Z,99.90
2022-09-11T23:25:08.984Z,99.90
2022-09-11T23:27:35.773Z,99.90
2022-09-11T23:30:02.720Z,99.90
2022-09-11T23:32:29.471Z,99.90
2022-09-11T23:34:56.373Z,99.90
2022-09-11T23:37:23.122Z,99.90
2022-09-11T23:39:50.076Z,99.90
2022-09-11T23:42:16.860Z,99.90
2022-09-11T23:44:43.615Z,99.90
2022-09-11T23:47:10.353Z,99.90
2022-09-11T23:49:37.152Z,99.90
2022-09-11T23:52:04.912Z,99.90
2022-09-11T23:54:31.733Z,99.90
2022-09-11T23:56:59.048Z,99.90
2022-09-11T23:59:26.006Z,99.90
